FMNM Airport Information

Runway Information
Runway 14 Length 7218 ft width 148 ft
Elevation 35 ft Threshold 0 ft Heading 132
Runway 32 Length 7218 ft Width 148 ft
Elevation 87 ft Threshold 0 ft Heading 312
Airport Frequencies
Type A/G Name MAHAJANGA Frequency 563.4 MHZ
Type TWR Name MAHAJANGA Frequency 119.1 MHZ
Airport Navaids
Type VOR-DME Name Philibert Tsiranana Frequency 112100 KHZ
Type NDB Name Mahajanga Frequency 326 KHZ
Airport Weather Information & NOTAM
ADDS - METARS form results

(2007 UTC 25 April 2019)
Data provider http://aviationweather.gov/metar/data/
 
Forecast for: FMNM (MAJUNGA/MAHAJANG, KM)
Text: TAF FMNM 251700Z 2518/2618 30005KT 9999 FEW020CB SCT040
Forecast period: 1800 UTC 25 April 2019 to 1800 UTC 26 April 2019
Forecast type: FROM: standard forecast or significant change
Winds: from the WNW (300 degrees) at 6 MPH (5 knots; 2.6 m/s)
Visibility: 6 or more miles 10+ km)
Ceiling: at least 12,000 feet AGL
Clouds: few clouds at 2000 feet AGL
scattered clouds at 4000 feet AGL
Weather: no significant weather forecast for this period
Text: PROB30
Forecast period: 0100 to 0400 UTC 26 April 2019
Forecast type: TEMPORARY: The following changes expected for less than half the time period
Visibility: 2.80 miles (4.51 km)
Ceiling: unknown
Clouds: missing
Weather: TSRA  (rain associated with thunderstorm(s))